aviador You're here:

RJOO Decoded Metar

OSAKA in JAPAN
Report Time2016-08-28 04:00:00
UTC Time2016-08-28 05:05:09
Flight Rules vfr VFR
Wind070° at 10 kt
W.Decomp.*RWY 14: 4.5 kt HW 8.9 kt LCW
W.Rank070° ranks 8
Current wind is above 070° avg. (7.7)
Visibility9999 m
Phenomena:Light Shower Rain
Clouds:Few 010 Hf
Scattered 045 Hf
Broken 080 Hf
Expected CloudBase > 2,800 ft AGL from Temp-Dew spread
Ceiling8,000 ft
Temp28°C (ISA +13)
Dew Point21°C (66% RH)
Heat Index30.2°C
QNH0998 hPa
Density Alt2,392 ft
Elevation49 ft
Report Wrong Elevation
Raw Report
METAR RJOO 280400Z 07010KT 9999 -SHRA FEW010 SCT045 BKN080 28/21 Q0998
RMK 1CU010 3CU045 7AC080 A2947=

Extra information for RJOO:More info

Metar Taf Metar & Taf Last 4 Metars F.Rules Stats Wind Profile Meteogram Temp Stats Airport Information Weather charts Add Link Nearby VenuesMetar ALERT Operation Metar Decoded Social comments